createdAt,value
2023-02-09T00:01:15.740Z,11.25
2023-02-09T00:03:43.814Z,10.80
2023-02-09T00:06:14.608Z,12.52
2023-02-09T00:08:41.773Z,11.18
2023-02-09T00:11:43.049Z,9.55
2023-02-09T00:14:11.004Z,11.23
2023-02-09T00:16:37.939Z,11.95
2023-02-09T00:19:05.042Z,11.05
2023-02-09T00:21:32.454Z,10.40
2023-02-09T00:23:59.587Z,11.40
2023-02-09T00:26:26.527Z,11.18
2023-02-09T00:28:53.498Z,9.75
2023-02-09T00:31:20.495Z,10.60
2023-02-09T00:33:47.596Z,11.77
2023-02-09T00:36:15.264Z,10.18
2023-02-09T00:38:43.122Z,9.88
2023-02-09T00:41:10.911Z,13.88
2023-02-09T00:43:37.870Z,15.30
2023-02-09T00:46:05.248Z,11.02
2023-02-09T00:55:52.453Z,12.65
2023-02-09T00:58:20.252Z,11.93
2023-02-09T01:00:48.569Z,11.57
2023-02-09T01:03:15.426Z,11.48
2023-02-09T01:05:42.794Z,10.88
2023-02-09T01:08:09.942Z,10.57
2023-02-09T01:10:38.420Z,10.18
2023-02-09T01:13:05.474Z,9.93
2023-02-09T01:15:32.510Z,11.18
2023-02-09T01:17:59.735Z,9.90
2023-02-09T01:20:27.239Z,11.38
2023-02-09T01:27:47.492Z,12.00
2023-02-09T01:30:14.769Z,9.95
2023-02-09T01:32:41.676Z,9.73
2023-02-09T01:35:09.122Z,11.25
2023-02-09T01:40:04.445Z,10.18
2023-02-09T01:42:31.199Z,9.48
2023-02-09T01:45:25.229Z,11.40
2023-02-09T01:48:01.374Z,10.52
2023-02-09T01:50:33.637Z,9.13
2023-02-09T01:53:01.483Z,11.20
2023-02-09T01:55:32.858Z,11.30
2023-02-09T01:58:15.921Z,10.00
2023-02-09T02:00:43.520Z,9.68
2023-02-09T02:03:14.244Z,9.80
2023-02-09T02:05:45.746Z,9.57
2023-02-09T02:08:24.532Z,11.30
2023-02-09T02:10:54.210Z,9.02
2023-02-09T02:13:21.480Z,11.35
2023-02-09T02:16:19.705Z,10.05
2023-02-09T02:19:09.118Z,9.52
2023-02-09T02:21:58.927Z,10.43
2023-02-09T02:25:12.836Z,10.80
2023-02-09T02:28:03.822Z,11.40
2023-02-09T02:30:39.611Z,10.95
2023-02-09T02:33:34.508Z,10.57
2023-02-09T02:36:27.756Z,10.50
2023-02-09T02:39:19.067Z,10.88
2023-02-09T02:42:24.214Z,10.98
2023-02-09T02:45:03.991Z,12.07
2023-02-09T02:47:33.244Z,10.55
2023-02-09T02:50:07.982Z,9.82
2023-02-09T02:52:34.803Z,9.52
2023-02-09T02:55:07.640Z,10.32
2023-02-09T02:57:37.502Z,10.75
2023-02-09T03:00:25.673Z,10.35
2023-02-09T03:02:59.913Z,10.05
2023-02-09T03:05:27.975Z,9.20
2023-02-09T03:07:54.787Z,9.73
2023-02-09T03:10:29.242Z,11.10
2023-02-09T03:13:14.509Z,9.20
2023-02-09T03:16:22.571Z,10.52
2023-02-09T03:19:27.306Z,9.70
2023-02-09T03:22:09.158Z,9.23
2023-02-09T03:24:37.683Z,10.38
2023-02-09T03:27:32.606Z,10.43
2023-02-09T03:30:04.272Z,9.38
2023-02-09T03:32:32.119Z,9.23
2023-02-09T03:34:59.202Z,9.18
2023-02-09T03:37:26.042Z,10.27
2023-02-09T03:39:53.005Z,9.43
2023-02-09T03:42:19.821Z,9.45
2023-02-09T03:44:46.619Z,9.40
2023-02-09T03:47:13.464Z,9.50
2023-02-09T03:49:41.634Z,9.10
2023-02-09T03:52:11.722Z,7.85
2023-02-09T03:54:38.698Z,10.38
2023-02-09T03:57:05.700Z,8.90
2023-02-09T03:59:36.824Z,9.27
2023-02-09T04:02:06.580Z,10.23
2023-02-09T04:04:33.391Z,8.88
2023-02-09T04:07:00.455Z,9.88
2023-02-09T04:09:27.632Z,10.15
2023-02-09T04:11:54.995Z,11.10
2023-02-09T04:16:48.770Z,8.65
2023-02-09T04:19:15.920Z,9.43
2023-02-09T04:21:42.943Z,9.02
2023-02-09T04:24:09.923Z,9.13
2023-02-09T04:26:36.983Z,8.57
2023-02-09T04:29:04.479Z,9.45
2023-02-09T04:31:32.026Z,9.23
2023-02-09T04:33:58.885Z,8.43
2023-02-09T04:36:25.781Z,10.93
2023-02-09T04:38:52.590Z,9.32
2023-02-09T04:41:19.531Z,9.10
2023-02-09T04:43:47.075Z,7.90
2023-02-09T04:46:15.827Z,10.02
2023-02-09T04:48:43.077Z,8.55
2023-02-09T04:51:10.308Z,8.55
2023-02-09T04:53:37.570Z,9.15
2023-02-09T04:56:05.084Z,9.88
2023-02-09T04:58:50.513Z,10.35
2023-02-09T05:01:22.771Z,8.45
2023-02-09T05:03:49.597Z,8.93
2023-02-09T05:06:16.849Z,10.45
2023-02-09T05:08:44.372Z,9.90
2023-02-09T05:11:12.270Z,12.20
2023-02-09T05:13:39.447Z,8.23
2023-02-09T05:16:08.527Z,13.10
2023-02-09T05:18:36.160Z,11.95
2023-02-09T05:21:03.188Z,9.15
2023-02-09T05:23:30.340Z,8.20
2023-02-09T05:25:57.262Z,9.95
2023-02-09T05:28:25.120Z,9.48
2023-02-09T05:30:53.794Z,9.80
2023-02-09T05:33:22.423Z,11.07
2023-02-09T05:35:50.523Z,8.88
2023-02-09T05:38:17.529Z,8.73
2023-02-09T05:40:45.332Z,9.77
2023-02-09T05:43:12.269Z,9.02
2023-02-09T05:45:39.161Z,10.30
2023-02-09T05:48:06.085Z,9.27
2023-02-09T05:50:33.068Z,10.25
2023-02-09T05:53:00.151Z,9.85
2023-02-09T05:55:27.294Z,9.10
2023-02-09T05:57:54.146Z,9.60
2023-02-09T06:00:21.577Z,9.40
2023-02-09T06:07:41.744Z,9.70
2023-02-09T06:10:09.169Z,10.77
2023-02-09T06:19:56.134Z,9.77
2023-02-09T06:22:22.865Z,10.27
2023-02-09T06:24:49.624Z,12.95
2023-02-09T06:27:16.373Z,10.15
2023-02-09T06:29:43.256Z,11.60
2023-02-09T06:32:10.206Z,13.95
2023-02-09T06:34:37.104Z,11.52
2023-02-09T06:37:03.961Z,9.02
2023-02-09T06:39:30.780Z,11.20
2023-02-09T06:41:57.588Z,10.50
2023-02-09T06:44:24.708Z,11.85
2023-02-09T06:46:51.478Z,11.00
2023-02-09T06:49:18.868Z,10.70
2023-02-09T06:51:45.924Z,11.45
2023-02-09T06:54:12.758Z,12.50
2023-02-09T06:56:39.478Z,12.85
2023-02-09T06:59:06.300Z,11.77
2023-02-09T07:01:33.200Z,11.93
2023-02-09T07:04:00.100Z,11.73
2023-02-09T07:06:27.097Z,13.98
2023-02-09T07:08:53.953Z,10.02
2023-02-09T07:11:21.247Z,11.43
2023-02-09T07:13:48.158Z,11.60
2023-02-09T07:16:15.384Z,10.75
2023-02-09T07:18:42.358Z,10.98
2023-02-09T07:21:15.883Z,13.88
2023-02-09T07:23:42.760Z,11.73
2023-02-09T07:26:13.831Z,20.08
2023-02-09T07:28:41.769Z,12.85
2023-02-09T07:31:11.615Z,13.48
2023-02-09T07:33:38.578Z,13.15
2023-02-09T07:36:07.848Z,14.07
2023-02-09T07:38:35.618Z,13.68
2023-02-09T07:41:04.747Z,12.02
2023-02-09T07:43:32.478Z,17.90
2023-02-09T07:46:03.876Z,18.90
2023-02-09T07:48:31.454Z,13.27
2023-02-09T07:50:58.356Z,12.45
2023-02-09T07:53:26.077Z,12.35
2023-02-09T07:55:53.151Z,8.95
2023-02-09T07:58:21.128Z,12.57
2023-02-09T08:00:49.277Z,10.80
2023-02-09T08:03:21.231Z,12.25
2023-02-09T08:05:53.997Z,10.88
2023-02-09T08:08:20.741Z,11.70
2023-02-09T08:10:47.623Z,10.20
2023-02-09T08:13:15.191Z,10.82
2023-02-09T08:15:47.249Z,20.65
2023-02-09T08:18:21.633Z,17.98
2023-02-09T08:20:49.454Z,12.77
2023-02-09T08:23:21.251Z,12.55
2023-02-09T08:25:51.568Z,14.25
2023-02-09T08:28:20.224Z,14.02
2023-02-09T08:33:33.601Z,15.00
2023-02-09T08:36:00.475Z,21.02
2023-02-09T08:38:27.335Z,16.40
2023-02-09T08:40:54.158Z,15.25
2023-02-09T08:43:21.025Z,13.68
2023-02-09T08:45:48.418Z,15.25
2023-02-09T08:48:15.762Z,18.10
2023-02-09T08:50:42.548Z,16.67
2023-02-09T08:53:09.471Z,12.95
2023-02-09T08:55:38.648Z,23.05
2023-02-09T08:58:05.729Z,18.15
2023-02-09T09:00:32.519Z,16.20
2023-02-09T09:02:59.514Z,15.43
2023-02-09T09:05:26.385Z,18.92
2023-02-09T09:07:53.138Z,13.90
2023-02-09T09:10:20.021Z,15.98
2023-02-09T09:12:46.912Z,15.45
2023-02-09T09:15:13.678Z,16.40
2023-02-09T09:17:40.468Z,15.88
2023-02-09T09:20:07.932Z,15.63
2023-02-09T09:22:34.830Z,14.43
2023-02-09T09:25:01.629Z,14.68
2023-02-09T09:27:28.431Z,18.23
2023-02-09T09:29:55.843Z,13.77
2023-02-09T09:32:25.133Z,13.40
2023-02-09T09:34:57.517Z,15.13
2023-02-09T09:37:25.841Z,15.65
2023-02-09T09:39:53.085Z,16.88
2023-02-09T09:42:41.562Z,27.30
2023-02-09T09:45:14.816Z,18.42
2023-02-09T09:47:43.875Z,15.38
2023-02-09T09:50:26.317Z,19.10
2023-02-09T09:53:08.591Z,14.75
2023-02-09T09:55:36.988Z,14.10
2023-02-09T09:58:06.200Z,13.20
2023-02-09T10:00:39.618Z,14.48
2023-02-09T10:03:20.431Z,14.10
2023-02-09T10:06:09.061Z,14.00
2023-02-09T10:08:59.937Z,13.38
2023-02-09T10:11:41.334Z,14.02
2023-02-09T10:14:09.931Z,13.02
2023-02-09T10:16:40.308Z,14.23
2023-02-09T10:19:22.024Z,12.38
2023-02-09T10:21:49.334Z,13.18
2023-02-09T10:27:13.055Z,12.32
2023-02-09T10:29:40.016Z,11.82
2023-02-09T10:32:21.684Z,14.57
2023-02-09T10:34:53.331Z,16.00
2023-02-09T10:37:38.392Z,16.15
2023-02-09T10:40:17.698Z,19.05
2023-02-09T10:43:39.670Z,13.48
2023-02-09T10:46:19.416Z,14.13
2023-02-09T10:48:46.965Z,14.40
2023-02-09T10:51:29.315Z,12.55
2023-02-09T10:53:58.096Z,14.05
2023-02-09T10:56:28.876Z,13.07
2023-02-09T10:59:15.227Z,11.77
2023-02-09T11:04:21.150Z,17.98
2023-02-09T11:06:55.541Z,13.32
2023-02-09T11:09:36.088Z,12.95
2023-02-09T11:12:03.209Z,18.45
2023-02-09T11:14:30.102Z,13.90
2023-02-09T11:17:15.423Z,13.43
2023-02-09T11:19:57.482Z,14.40
2023-02-09T11:22:32.983Z,14.90
2023-02-09T11:25:14.870Z,12.23
2023-02-09T11:27:56.627Z,11.57
2023-02-09T11:30:48.727Z,12.10
2023-02-09T11:33:37.919Z,13.20
2023-02-09T11:36:07.717Z,15.05
2023-02-09T11:38:51.182Z,13.45
2023-02-09T11:41:46.948Z,12.65
2023-02-09T11:44:54.603Z,14.77
2023-02-09T11:47:42.576Z,10.82
2023-02-09T11:50:19.883Z,13.18
2023-02-09T11:52:55.552Z,11.65
2023-02-09T11:55:28.167Z,12.00
2023-02-09T11:58:05.837Z,13.38
2023-02-09T12:00:54.475Z,12.38
2023-02-09T12:03:22.973Z,12.10
2023-02-09T12:05:50.486Z,11.02
2023-02-09T12:08:58.075Z,16.08
2023-02-09T12:11:37.016Z,11.65
2023-02-09T12:14:32.659Z,11.77
2023-02-09T12:17:16.527Z,13.73
2023-02-09T12:19:53.745Z,11.85
2023-02-09T12:22:35.290Z,11.30
2023-02-09T12:25:33.843Z,12.63
2023-02-09T12:28:09.751Z,14.50
2023-02-09T12:30:43.030Z,13.93
2023-02-09T12:33:25.008Z,11.48
2023-02-09T12:36:15.967Z,11.75
2023-02-09T12:38:56.189Z,18.83
2023-02-09T12:41:29.137Z,13.10
2023-02-09T12:44:11.287Z,12.05
2023-02-09T12:46:53.083Z,11.15
2023-02-09T12:49:27.499Z,12.80
2023-02-09T12:52:12.712Z,11.73
2023-02-09T12:54:55.466Z,12.70
2023-02-09T12:57:22.273Z,15.07
2023-02-09T13:00:03.756Z,13.43
2023-02-09T13:03:08.057Z,12.45
2023-02-09T13:05:44.631Z,13.95
2023-02-09T13:08:11.753Z,14.95
2023-02-09T13:11:07.998Z,20.52
2023-02-09T13:13:40.658Z,22.60
2023-02-09T13:16:30.722Z,13.30
2023-02-09T13:19:23.054Z,14.75
2023-02-09T13:21:52.643Z,14.32
2023-02-09T13:24:32.883Z,14.63
2023-02-09T13:27:00.229Z,14.68
2023-02-09T13:29:36.166Z,13.75
2023-02-09T13:32:15.190Z,14.13
2023-02-09T13:35:30.371Z,15.40
2023-02-09T13:38:08.021Z,14.57
2023-02-09T13:40:35.953Z,13.07
2023-02-09T13:43:11.553Z,14.65
2023-02-09T13:45:49.481Z,14.18
2023-02-09T13:48:37.743Z,14.40
2023-02-09T13:51:15.482Z,17.25
2023-02-09T13:53:54.970Z,14.52
2023-02-09T13:56:22.159Z,15.20
2023-02-09T14:01:18.151Z,13.75
2023-02-09T14:03:58.266Z,13.70
2023-02-09T14:06:41.160Z,14.20
2023-02-09T14:09:20.861Z,16.90
2023-02-09T14:11:55.638Z,14.80
2023-02-09T14:15:00.283Z,15.02
2023-02-09T14:17:30.196Z,13.10
2023-02-09T14:19:59.380Z,12.82
2023-02-09T14:22:38.140Z,16.13
2023-02-09T14:25:14.080Z,15.05
2023-02-09T14:27:50.534Z,18.58
2023-02-09T14:30:23.584Z,15.35
2023-02-09T14:32:55.414Z,15.85
2023-02-09T14:35:38.512Z,14.35
2023-02-09T14:38:05.447Z,15.95
2023-02-09T14:40:34.565Z,13.65
2023-02-09T14:43:08.689Z,17.92
2023-02-09T14:45:43.207Z,22.13
2023-02-09T14:48:24.204Z,19.42
2023-02-09T14:50:55.856Z,26.80
2023-02-09T14:53:25.081Z,16.00
2023-02-09T14:55:53.825Z,17.00
2023-02-09T14:58:26.448Z,16.15
2023-02-09T15:00:55.489Z,15.77
2023-02-09T15:03:22.597Z,17.35
2023-02-09T15:08:23.453Z,15.27
2023-02-09T15:10:57.715Z,21.50
2023-02-09T15:13:27.637Z,14.52
2023-02-09T15:15:54.578Z,16.27
2023-02-09T15:18:24.623Z,19.63
2023-02-09T15:20:52.340Z,18.63
2023-02-09T15:23:19.575Z,18.02
2023-02-09T15:28:31.282Z,15.88
2023-02-09T15:30:59.417Z,17.13
2023-02-09T15:33:29.141Z,18.20
2023-02-09T15:35:58.912Z,17.17
2023-02-09T15:38:27.594Z,17.60
2023-02-09T15:41:13.022Z,20.92
2023-02-09T15:43:58.504Z,15.90
2023-02-09T15:46:44.147Z,16.33
2023-02-09T15:49:11.095Z,21.15
2023-02-09T15:51:39.474Z,15.43
2023-02-09T15:54:15.764Z,20.58
2023-02-09T15:56:42.932Z,17.63
2023-02-09T15:59:22.298Z,17.27
2023-02-09T16:01:50.215Z,16.83
2023-02-09T16:04:17.253Z,17.00
2023-02-09T16:06:47.898Z,17.08
2023-02-09T16:09:32.642Z,17.15
2023-02-09T16:11:59.640Z,17.50
2023-02-09T16:14:31.757Z,17.75
2023-02-09T16:16:58.677Z,19.60
2023-02-09T16:19:28.766Z,19.35
2023-02-09T16:21:59.354Z,16.55
2023-02-09T16:24:43.842Z,18.00
2023-02-09T16:27:28.667Z,19.77
2023-02-09T16:29:57.171Z,19.73
2023-02-09T16:32:25.776Z,17.33
2023-02-09T16:34:52.772Z,18.08
2023-02-09T16:37:29.301Z,16.27
2023-02-09T16:40:00.815Z,18.48
2023-02-09T16:42:29.371Z,18.45
2023-02-09T16:45:00.243Z,27.50
2023-02-09T16:47:28.453Z,21.55
2023-02-09T16:50:00.678Z,19.20
2023-02-09T16:52:30.435Z,19.13
2023-02-09T16:55:00.103Z,19.88
2023-02-09T16:57:28.286Z,17.95
2023-02-09T16:59:56.008Z,23.50
2023-02-09T17:02:32.130Z,21.30
2023-02-09T17:05:00.219Z,18.23
2023-02-09T17:07:39.810Z,25.70
2023-02-09T17:10:18.032Z,19.45
2023-02-09T17:12:45.058Z,18.63
2023-02-09T17:15:29.512Z,21.92
2023-02-09T17:18:02.368Z,24.23
2023-02-09T17:20:40.927Z,24.75
2023-02-09T17:23:09.993Z,23.13
2023-02-09T17:25:36.868Z,26.73
2023-02-09T17:28:04.604Z,23.75
2023-02-09T17:30:36.300Z,29.38
2023-02-09T17:33:06.796Z,26.65
2023-02-09T17:36:09.913Z,26.80
2023-02-09T17:38:31.880Z,23.92
2023-02-09T17:41:01.641Z,27.27
2023-02-09T17:43:34.917Z,28.05
2023-02-09T17:46:10.318Z,29.55
2023-02-09T17:48:40.135Z,29.17
2023-02-09T17:51:13.940Z,28.40
2023-02-09T17:53:40.637Z,26.83
2023-02-09T17:56:08.663Z,26.45
2023-02-09T17:58:35.413Z,27.17
2023-02-09T18:01:02.367Z,29.75
2023-02-09T18:03:29.160Z,29.90
2023-02-09T18:06:01.673Z,32.25
2023-02-09T18:08:28.665Z,33.65
2023-02-09T18:10:58.560Z,28.83
2023-02-09T18:13:28.302Z,33.65
2023-02-09T18:15:55.430Z,30.05
2023-02-09T18:18:24.248Z,35.85
2023-02-09T18:20:54.620Z,29.88
2023-02-09T18:23:23.177Z,28.55
2023-02-09T18:25:53.103Z,29.33
2023-02-09T18:28:19.967Z,29.00
2023-02-09T18:30:49.110Z,33.13
2023-02-09T18:33:16.499Z,28.83
2023-02-09T18:35:47.241Z,29.45
2023-02-09T18:38:15.765Z,28.15
2023-02-09T18:40:42.724Z,31.48
2023-02-09T18:43:14.681Z,33.38
2023-02-09T18:45:41.521Z,27.33
2023-02-09T18:48:10.389Z,29.80
2023-02-09T18:50:40.266Z,31.50
2023-02-09T18:53:07.400Z,29.95
2023-02-09T18:55:38.149Z,33.30
2023-02-09T18:58:06.573Z,28.88
2023-02-09T19:00:33.687Z,29.65
2023-02-09T19:03:00.755Z,33.13
2023-02-09T19:05:32.420Z,34.22
2023-02-09T19:07:59.664Z,32.67
2023-02-09T19:12:54.359Z,32.22
2023-02-09T19:15:25.533Z,37.20
2023-02-09T19:17:56.727Z,41.70
2023-02-09T19:20:28.750Z,57.97
2023-02-09T19:22:59.452Z,65.97
2023-02-09T19:25:30.867Z,63.97
2023-02-09T19:27:57.764Z,64.78
2023-02-09T19:30:26.502Z,58.42
2023-02-09T19:32:57.588Z,65.05
2023-02-09T19:35:29.218Z,61.00
2023-02-09T19:37:57.621Z,57.25
2023-02-09T19:40:33.806Z,70.20
2023-02-09T19:43:04.872Z,67.47
2023-02-09T19:45:37.532Z,72.13
2023-02-09T19:48:06.571Z,77.05
2023-02-09T19:50:34.268Z,79.18
2023-02-09T19:53:02.797Z,73.32
2023-02-09T19:55:29.905Z,74.82
2023-02-09T19:57:56.970Z,75.55
2023-02-09T20:00:23.888Z,75.15
2023-02-09T20:02:50.670Z,73.15
2023-02-09T20:05:17.758Z,67.53
2023-02-09T20:07:44.719Z,75.05
2023-02-09T20:10:11.530Z,65.55
2023-02-09T20:12:38.493Z,64.40
2023-02-09T20:15:05.684Z,68.18
2023-02-09T20:17:32.608Z,67.90
2023-02-09T20:19:59.429Z,66.20
2023-02-09T20:22:26.485Z,64.65
2023-02-09T20:24:53.219Z,61.47
2023-02-09T20:27:23.775Z,54.97
2023-02-09T20:29:50.758Z,50.30
2023-02-09T20:32:17.809Z,51.78
2023-02-09T20:34:47.381Z,47.72
2023-02-09T20:37:14.233Z,45.38
2023-02-09T20:39:44.183Z,48.47
2023-02-09T20:42:30.180Z,45.13
2023-02-09T20:45:15.483Z,44.00
2023-02-09T20:47:42.811Z,40.83
2023-02-09T20:50:20.171Z,39.97
2023-02-09T20:52:47.012Z,43.15
2023-02-09T20:55:16.163Z,49.78
2023-02-09T20:57:43.248Z,41.13
2023-02-09T21:00:12.511Z,45.10
2023-02-09T21:02:39.513Z,48.03
2023-02-09T21:05:11.279Z,48.20
2023-02-09T21:07:40.335Z,43.67
2023-02-09T21:10:13.300Z,49.03
2023-02-09T21:12:40.141Z,43.47
2023-02-09T21:15:07.316Z,51.95
2023-02-09T21:17:34.217Z,53.80
2023-02-09T21:20:01.467Z,50.10
2023-02-09T21:22:28.254Z,48.22
2023-02-09T21:24:55.106Z,46.50
2023-02-09T21:27:22.018Z,45.08
2023-02-09T21:29:48.811Z,43.22
2023-02-09T21:32:15.544Z,43.25
2023-02-09T21:34:42.911Z,44.53
2023-02-09T21:39:40.475Z,38.28
2023-02-09T21:44:54.902Z,41.80
2023-02-09T21:47:26.462Z,39.05
2023-02-09T21:49:53.511Z,41.92
2023-02-09T21:52:20.425Z,38.20
2023-02-09T21:54:47.342Z,40.72
2023-02-09T21:57:14.313Z,43.08
2023-02-09T21:59:41.422Z,37.83
2023-02-09T22:02:12.571Z,37.70
2023-02-09T22:04:39.804Z,40.92
2023-02-09T22:07:06.599Z,43.67
2023-02-09T22:09:33.358Z,41.25
2023-02-09T22:12:00.356Z,42.38
2023-02-09T22:14:28.722Z,37.60
2023-02-09T22:16:56.579Z,50.40
2023-02-09T22:19:23.794Z,41.35
2023-02-09T22:21:51.053Z,39.05
2023-02-09T22:24:19.140Z,39.20
2023-02-09T22:26:46.916Z,38.67
2023-02-09T22:29:15.210Z,41.53
2023-02-09T22:31:42.633Z,39.08
2023-02-09T22:36:36.540Z,44.85
2023-02-09T22:39:05.164Z,39.75
2023-02-09T22:41:32.639Z,42.83
2023-02-09T22:44:12.484Z,42.97
2023-02-09T22:46:41.125Z,38.35
2023-02-09T22:49:16.659Z,44.53
2023-02-09T22:51:44.281Z,42.90
2023-02-09T22:54:13.667Z,42.40
2023-02-09T22:56:41.607Z,41.40
2023-02-09T22:59:10.371Z,41.13
2023-02-09T23:01:37.272Z,38.45
2023-02-09T23:04:04.138Z,37.78
2023-02-09T23:06:31.022Z,40.05
2023-02-09T23:09:03.653Z,34.78
2023-02-09T23:11:31.609Z,34.25
2023-02-09T23:14:14.521Z,37.40
2023-02-09T23:16:43.679Z,35.95
2023-02-09T23:19:14.070Z,39.60
2023-02-09T23:21:43.964Z,38.47
2023-02-09T23:24:12.118Z,34.90
2023-02-09T23:26:39.743Z,38.25
2023-02-09T23:29:10.177Z,36.88
2023-02-09T23:31:37.067Z,37.72
2023-02-09T23:34:04.673Z,43.28
2023-02-09T23:36:33.042Z,38.63
2023-02-09T23:39:02.500Z,37.55
2023-02-09T23:41:29.671Z,41.53
2023-02-09T23:43:57.065Z,41.20
2023-02-09T23:46:28.600Z,38.35
2023-02-09T23:48:56.753Z,34.70
2023-02-09T23:51:34.825Z,33.90
2023-02-09T23:54:04.405Z,36.53
2023-02-09T23:56:36.693Z,36.33
2023-02-09T23:59:09.653Z,38.17
